createdAt,value
2018-04-27T00:00:45.476Z,0.00
2018-04-27T00:01:45.473Z,0.00
2018-04-27T00:02:45.465Z,0.00
2018-04-27T00:03:45.465Z,0.00
2018-04-27T00:04:45.459Z,0.00
2018-04-27T00:05:45.455Z,0.00
2018-04-27T00:06:45.471Z,0.00
2018-04-27T00:07:45.449Z,0.00
2018-04-27T00:08:45.445Z,0.00
2018-04-27T00:09:45.443Z,0.00
2018-04-27T00:10:45.439Z,0.00
2018-04-27T00:11:45.434Z,0.00
2018-04-27T00:12:45.430Z,0.00
2018-04-27T00:13:45.425Z,0.00
2018-04-27T00:14:45.422Z,0.00
2018-04-27T00:15:45.419Z,0.00
2018-04-27T00:16:45.417Z,0.00
2018-04-27T00:17:45.410Z,0.00
2018-04-27T00:18:45.417Z,0.00
2018-04-27T00:19:45.403Z,0.00
2018-04-27T00:20:45.399Z,0.00
2018-04-27T00:21:45.396Z,0.00
2018-04-27T00:22:45.391Z,0.00
2018-04-27T00:23:45.393Z,0.00
2018-04-27T00:24:45.387Z,0.00
2018-04-27T00:25:45.380Z,0.00
2018-04-27T00:26:45.376Z,0.00
2018-04-27T00:27:45.371Z,0.00
2018-04-27T00:28:45.366Z,0.00
2018-04-27T00:29:45.376Z,0.00
2018-04-27T00:30:45.359Z,0.00
2018-04-27T00:31:45.356Z,0.00
2018-04-27T00:32:45.360Z,0.00
2018-04-27T00:33:45.349Z,0.00
2018-04-27T00:34:45.345Z,0.00
2018-04-27T00:35:45.363Z,0.00
2018-04-27T00:36:45.336Z,0.00
2018-04-27T00:37:45.332Z,0.00
2018-04-27T00:38:45.328Z,0.00
2018-04-27T00:39:45.326Z,0.00
2018-04-27T00:40:45.322Z,0.00
2018-04-27T00:41:45.319Z,0.00
2018-04-27T00:42:45.312Z,0.00
2018-04-27T00:43:45.320Z,0.00
2018-04-27T00:44:45.309Z,0.00
2018-04-27T00:45:45.301Z,0.00
2018-04-27T00:46:45.298Z,0.00
2018-04-27T00:47:45.292Z,0.00
2018-04-27T00:48:45.289Z,0.00
2018-04-27T00:49:45.290Z,0.00
2018-04-27T00:50:45.289Z,0.00
2018-04-27T00:51:45.275Z,0.00
2018-04-27T00:52:46.099Z,0.00
2018-04-27T00:53:45.270Z,0.00
2018-04-27T00:54:45.262Z,0.00
2018-04-27T00:55:45.258Z,0.00
2018-04-27T00:56:45.254Z,0.00
2018-04-27T00:57:45.251Z,0.00
2018-04-27T00:58:45.246Z,0.00
2018-04-27T00:59:45.242Z,0.00
2018-04-27T01:00:45.237Z,0.00
2018-04-27T01:01:45.234Z,0.00
2018-04-27T01:02:45.238Z,0.00
2018-04-27T01:03:45.231Z,0.00
2018-04-27T01:04:45.221Z,0.00
2018-04-27T01:05:45.218Z,0.00
2018-04-27T01:06:45.216Z,0.00
2018-04-27T01:07:45.217Z,0.00
2018-04-27T01:08:45.205Z,0.00
2018-04-27T01:09:45.203Z,0.00
2018-04-27T01:10:45.196Z,0.00
2018-04-27T01:11:45.194Z,0.00
2018-04-27T01:12:45.188Z,0.00
2018-04-27T01:13:45.186Z,0.00
2018-04-27T01:14:45.180Z,0.00
2018-04-27T01:15:45.176Z,0.00
2018-04-27T01:16:45.174Z,0.00
2018-04-27T01:17:45.169Z,0.00
2018-04-27T01:18:45.163Z,0.00
2018-04-27T01:19:45.160Z,0.00
2018-04-27T01:20:45.158Z,0.00
2018-04-27T01:21:45.150Z,0.00
2018-04-27T01:22:45.153Z,0.00
2018-04-27T01:23:45.143Z,0.00
2018-04-27T01:24:45.137Z,0.00
2018-04-27T01:25:45.132Z,0.00
2018-04-27T01:26:45.130Z,0.00
2018-04-27T01:27:45.123Z,0.00
2018-04-27T01:28:45.120Z,0.00
2018-04-27T01:29:45.114Z,0.00
2018-04-27T01:30:45.109Z,0.00
2018-04-27T01:31:45.109Z,0.00
2018-04-27T01:32:45.102Z,0.00
2018-04-27T01:33:45.100Z,0.00
2018-04-27T01:34:45.091Z,0.00
2018-04-27T01:35:45.089Z,0.00
2018-04-27T01:36:45.082Z,0.00
2018-04-27T01:37:45.077Z,0.00
2018-04-27T01:38:45.077Z,0.00
2018-04-27T01:39:45.070Z,0.00
2018-04-27T01:40:45.065Z,0.00
2018-04-27T01:41:45.061Z,0.00
2018-04-27T01:42:45.056Z,0.00
2018-04-27T01:43:45.053Z,0.00
2018-04-27T01:44:45.048Z,0.00
2018-04-27T01:45:45.043Z,0.00
2018-04-27T01:46:45.038Z,0.00
2018-04-27T01:47:45.037Z,0.00
2018-04-27T01:48:45.033Z,0.00
2018-04-27T01:49:45.027Z,0.00
2018-04-27T01:50:45.023Z,0.00
2018-04-27T01:51:45.021Z,0.00
2018-04-27T01:52:45.014Z,0.00
2018-04-27T01:53:45.027Z,0.00
2018-04-27T01:54:45.003Z,0.00
2018-04-27T01:55:45.001Z,0.00
2018-04-27T01:56:45.007Z,0.00
2018-04-27T01:57:44.991Z,0.00
2018-04-27T01:58:44.987Z,0.00
2018-04-27T01:59:44.983Z,0.00
2018-04-27T02:00:44.979Z,0.00
2018-04-27T02:01:44.973Z,0.00
2018-04-27T02:02:44.969Z,0.00
2018-04-27T02:03:44.964Z,0.00
2018-04-27T02:04:44.961Z,0.00
2018-04-27T02:05:44.954Z,0.00
2018-04-27T02:06:44.950Z,0.00
2018-04-27T02:07:44.952Z,0.00
2018-04-27T02:08:44.943Z,0.00
2018-04-27T02:09:44.938Z,0.00
2018-04-27T02:10:44.935Z,0.00
2018-04-27T02:11:44.930Z,0.00
2018-04-27T02:12:44.940Z,0.00
2018-04-27T02:13:44.941Z,0.00
2018-04-27T02:14:44.923Z,0.00
2018-04-27T02:15:44.909Z,0.00
2018-04-27T02:16:44.905Z,0.00
2018-04-27T02:17:44.905Z,0.00
2018-04-27T02:18:44.897Z,0.00
2018-04-27T02:19:44.891Z,0.00
2018-04-27T02:20:44.891Z,0.00
2018-04-27T02:21:44.887Z,0.00
2018-04-27T02:22:44.881Z,0.00
2018-04-27T02:23:44.873Z,0.00
2018-04-27T02:24:44.869Z,0.00
2018-04-27T02:25:44.870Z,0.00
2018-04-27T02:26:44.858Z,0.00
2018-04-27T02:27:44.857Z,0.00
2018-04-27T02:28:44.850Z,0.00
2018-04-27T02:29:44.846Z,0.00
2018-04-27T02:30:44.844Z,0.00
2018-04-27T02:31:44.839Z,0.00
2018-04-27T02:32:44.832Z,0.00
2018-04-27T02:33:44.827Z,0.00
2018-04-27T02:34:44.822Z,0.00
2018-04-27T02:35:44.818Z,0.00
2018-04-27T02:36:44.814Z,0.00
2018-04-27T02:37:44.823Z,0.00
2018-04-27T02:38:44.804Z,0.00
2018-04-27T02:39:44.799Z,0.00
2018-04-27T02:40:44.795Z,0.00
2018-04-27T02:41:44.792Z,0.00
2018-04-27T02:42:44.783Z,0.00
2018-04-27T02:43:44.781Z,0.00
2018-04-27T02:44:44.776Z,0.00
2018-04-27T02:45:44.774Z,0.00
2018-04-27T02:46:44.766Z,0.00
2018-04-27T02:47:44.760Z,0.00
2018-04-27T02:48:44.757Z,0.00
2018-04-27T02:49:44.756Z,0.00
2018-04-27T02:50:44.755Z,0.00
2018-04-27T02:51:44.745Z,0.00
2018-04-27T02:52:44.740Z,0.00
2018-04-27T02:53:44.733Z,0.00
2018-04-27T02:54:44.731Z,0.00
2018-04-27T02:55:44.728Z,0.00
2018-04-27T02:56:44.721Z,0.00
2018-04-27T02:57:44.717Z,0.00
2018-04-27T02:58:44.717Z,0.00
2018-04-27T02:59:44.703Z,0.00
2018-04-27T03:00:44.704Z,0.00
2018-04-27T03:01:44.697Z,0.00
2018-04-27T03:02:44.692Z,0.00
2018-04-27T03:03:44.690Z,0.00
2018-04-27T03:04:44.686Z,0.00
2018-04-27T03:05:44.678Z,0.00
2018-04-27T03:06:44.684Z,0.00
2018-04-27T03:07:44.667Z,0.00
2018-04-27T03:08:44.668Z,0.00
2018-04-27T03:09:44.657Z,0.00
2018-04-27T03:10:44.654Z,0.00
2018-04-27T03:11:44.649Z,0.00
2018-04-27T03:12:44.656Z,0.00
2018-04-27T03:13:44.640Z,0.00
2018-04-27T03:14:44.634Z,0.00
2018-04-27T03:15:44.631Z,0.00
2018-04-27T03:16:44.628Z,0.00
2018-04-27T03:17:44.620Z,0.00
2018-04-27T03:18:44.631Z,0.00
2018-04-27T03:19:44.609Z,0.00
2018-04-27T03:20:44.611Z,0.00
2018-04-27T03:21:44.609Z,0.00
2018-04-27T03:22:44.601Z,0.00
2018-04-27T03:23:44.684Z,0.00
2018-04-27T03:24:44.604Z,0.00
2018-04-27T03:25:44.589Z,0.00
2018-04-27T03:26:44.578Z,0.00
2018-04-27T03:27:44.574Z,0.00
2018-04-27T03:28:44.572Z,0.00
2018-04-27T03:29:44.564Z,0.00
2018-04-27T03:30:44.557Z,0.00
2018-04-27T03:31:44.555Z,0.00
2018-04-27T03:32:44.554Z,0.00
2018-04-27T03:33:44.557Z,0.00
2018-04-27T03:34:44.539Z,4.00
2018-04-27T03:35:44.535Z,0.00
2018-04-27T03:36:44.530Z,0.00
2018-04-27T03:37:44.523Z,0.00
2018-04-27T03:38:44.520Z,4.00
2018-04-27T03:39:44.525Z,0.00
2018-04-27T03:40:44.512Z,4.00
2018-04-27T03:41:44.505Z,4.00
2018-04-27T03:42:44.511Z,4.00
2018-04-27T03:43:44.498Z,4.00
2018-04-27T03:44:44.492Z,4.00
2018-04-27T03:45:44.486Z,8.00
2018-04-27T03:46:44.483Z,8.00
2018-04-27T03:47:44.481Z,8.00
2018-04-27T03:48:44.473Z,12.00
2018-04-27T03:49:44.466Z,12.00
2018-04-27T03:50:44.460Z,12.00
2018-04-27T03:51:44.459Z,12.00
2018-04-27T03:52:44.451Z,20.00
2018-04-27T03:53:44.447Z,20.00
2018-04-27T03:54:44.445Z,20.00
2018-04-27T03:55:44.441Z,24.00
2018-04-27T03:56:44.432Z,28.00
2018-04-27T03:57:44.427Z,28.00
2018-04-27T03:58:44.422Z,32.00
2018-04-27T03:59:44.420Z,36.00
2018-04-27T04:00:44.412Z,36.00
2018-04-27T04:01:44.411Z,40.00
2018-04-27T04:02:44.403Z,44.00
2018-04-27T04:03:44.397Z,48.00
2018-04-27T04:04:44.392Z,52.00
2018-04-27T04:05:44.388Z,52.00
2018-04-27T04:06:44.383Z,56.00
2018-04-27T04:07:44.378Z,60.00
2018-04-27T04:08:44.372Z,60.00
2018-04-27T04:09:44.368Z,68.00
2018-04-27T04:10:44.363Z,72.00
2018-04-27T04:11:44.359Z,76.00
2018-04-27T04:12:44.356Z,80.00
2018-04-27T04:13:44.353Z,84.00
2018-04-27T04:14:44.343Z,88.00
2018-04-27T04:15:44.336Z,92.00
2018-04-27T04:16:44.334Z,100.00
2018-04-27T04:17:44.337Z,108.00
2018-04-27T04:18:44.325Z,112.00
2018-04-27T04:19:44.317Z,120.00
2018-04-27T04:20:44.366Z,128.00
2018-04-27T04:21:44.308Z,136.00
2018-04-27T04:22:44.309Z,148.00
2018-04-27T04:23:44.299Z,156.00
2018-04-27T04:24:44.293Z,164.00
2018-04-27T04:25:44.309Z,172.00
2018-04-27T04:26:44.283Z,176.00
2018-04-27T04:27:44.277Z,184.00
2018-04-27T04:28:44.274Z,196.00
2018-04-27T04:29:44.267Z,208.00
2018-04-27T04:30:44.266Z,216.00
2018-04-27T04:31:44.259Z,224.00
2018-04-27T04:32:44.262Z,228.00
2018-04-27T04:33:44.250Z,236.00
2018-04-27T04:34:44.250Z,240.00
2018-04-27T04:35:44.249Z,248.00
2018-04-27T04:36:44.236Z,256.00
2018-04-27T04:37:44.228Z,268.00
2018-04-27T04:38:44.227Z,280.00
2018-04-27T04:39:44.223Z,292.00
2018-04-27T04:40:44.215Z,304.00
2018-04-27T04:41:44.211Z,316.00
2018-04-27T04:42:44.222Z,332.00
2018-04-27T04:43:44.209Z,352.00
2018-04-27T04:44:44.196Z,364.00
2018-04-27T04:45:44.189Z,384.00
2018-04-27T04:46:44.185Z,400.00
2018-04-27T04:47:44.181Z,416.00
2018-04-27T04:48:44.173Z,424.00
2018-04-27T04:49:44.200Z,440.00
2018-04-27T04:50:44.166Z,456.00
2018-04-27T04:51:44.161Z,476.00
2018-04-27T04:52:44.265Z,500.00
2018-04-27T04:53:44.150Z,520.00
2018-04-27T04:54:44.162Z,540.00
2018-04-27T04:55:44.142Z,552.00
2018-04-27T04:56:44.137Z,564.00
2018-04-27T04:57:44.132Z,572.00
2018-04-27T04:58:44.125Z,576.00
2018-04-27T04:59:44.121Z,572.00
2018-04-27T05:00:44.121Z,572.00
2018-04-27T05:01:44.113Z,576.00
2018-04-27T05:02:44.265Z,572.00
2018-04-27T05:03:44.103Z,576.00
2018-04-27T05:04:44.099Z,584.00
2018-04-27T05:05:44.096Z,584.00
2018-04-27T05:06:44.088Z,576.00
2018-04-27T05:07:44.084Z,580.00
2018-04-27T05:08:44.080Z,556.00
2018-04-27T05:09:44.079Z,552.00
2018-04-27T05:10:44.082Z,552.00
2018-04-27T05:11:44.067Z,556.00
2018-04-27T05:12:44.062Z,560.00
2018-04-27T05:13:44.057Z,568.00
2018-04-27T05:14:44.052Z,584.00
2018-04-27T05:15:44.048Z,604.00
2018-04-27T05:16:44.044Z,616.00
2018-04-27T05:17:44.037Z,640.00
2018-04-27T05:18:44.049Z,664.00
2018-04-27T05:19:44.030Z,676.00
2018-04-27T05:20:44.028Z,688.00
2018-04-27T05:21:44.022Z,704.00
2018-04-27T05:22:44.021Z,752.00
2018-04-27T05:23:44.015Z,796.00
2018-04-27T05:24:44.008Z,852.00
2018-04-27T05:25:44.004Z,924.00
2018-04-27T05:26:44.000Z,968.00
2018-04-27T05:27:43.999Z,980.00
2018-04-27T05:28:43.991Z,976.00
2018-04-27T05:29:43.989Z,988.00
2018-04-27T05:30:43.992Z,1000.00
2018-04-27T05:31:43.979Z,1000.00
2018-04-27T05:32:43.974Z,1000.00
2018-04-27T05:33:43.967Z,1020.00
2018-04-27T05:34:43.966Z,1036.00
2018-04-27T05:35:43.963Z,1048.00
2018-04-27T05:36:43.963Z,1028.00
2018-04-27T05:37:43.956Z,1016.00
2018-04-27T05:38:43.953Z,1004.00
2018-04-27T05:39:43.946Z,1000.00
2018-04-27T05:40:43.946Z,1012.00
2018-04-27T05:41:43.938Z,1036.00
2018-04-27T05:42:43.934Z,1032.00
2018-04-27T05:43:43.931Z,1020.00
2018-04-27T05:44:43.928Z,984.00
2018-04-27T05:45:43.920Z,960.00
2018-04-27T05:46:43.918Z,944.00
2018-04-27T05:47:43.914Z,940.00
2018-04-27T05:48:43.913Z,936.00
2018-04-27T05:49:43.908Z,960.00
2018-04-27T05:50:43.906Z,1012.00
2018-04-27T05:51:43.903Z,1036.00
2018-04-27T05:52:43.898Z,1064.00
2018-04-27T05:53:43.897Z,1092.00
2018-04-27T05:54:43.891Z,1104.00
2018-04-27T05:55:43.885Z,1144.00
2018-04-27T05:56:43.948Z,1184.00
2018-04-27T05:57:43.880Z,1208.00
2018-04-27T05:58:43.877Z,1212.00
2018-04-27T05:59:43.877Z,1188.00
2018-04-27T06:00:43.872Z,1132.00
2018-04-27T06:01:43.868Z,1104.00
2018-04-27T06:02:43.864Z,1108.00
2018-04-27T06:03:43.862Z,1112.00
2018-04-27T06:04:43.862Z,1104.00
2018-04-27T06:05:43.855Z,1124.00
2018-04-27T06:06:43.854Z,1156.00
2018-04-27T06:07:43.850Z,1188.00
2018-04-27T06:08:43.847Z,1228.00
2018-04-27T06:09:43.844Z,1316.00
2018-04-27T06:10:43.842Z,1312.00
2018-04-27T06:11:43.839Z,1292.00
2018-04-27T06:12:43.836Z,1284.00
2018-04-27T06:13:43.832Z,1284.00
2018-04-27T06:14:43.829Z,1280.00
2018-04-27T06:15:43.827Z,1292.00
2018-04-27T06:16:43.823Z,1316.00
2018-04-27T06:17:43.821Z,1352.00
2018-04-27T06:18:43.818Z,1368.00
2018-04-27T06:19:43.820Z,1400.00
2018-04-27T06:20:43.812Z,1416.00
2018-04-27T06:21:43.809Z,1440.00
2018-04-27T06:22:43.808Z,1464.00
2018-04-27T06:23:43.807Z,1452.00
2018-04-27T06:24:43.803Z,1424.00
2018-04-27T06:25:43.860Z,1400.00
2018-04-27T06:26:43.798Z,1404.00
2018-04-27T06:27:43.799Z,1452.00
2018-04-27T06:28:43.793Z,1476.00
2018-04-27T06:29:43.792Z,1476.00
2018-04-27T06:30:43.788Z,1452.00
2018-04-27T06:31:43.832Z,1572.00
2018-04-27T06:32:43.802Z,2176.00
2018-04-27T06:33:43.784Z,1912.00
2018-04-27T06:34:43.780Z,2016.00
2018-04-27T06:35:43.781Z,2492.00
2018-04-27T06:36:43.774Z,3260.00
2018-04-27T06:37:43.772Z,4108.00
2018-04-27T06:38:43.778Z,4196.00
2018-04-27T06:39:43.771Z,3932.00
2018-04-27T06:40:43.769Z,3940.00
2018-04-27T06:41:43.767Z,3932.00
2018-04-27T06:42:43.766Z,3812.00
2018-04-27T06:43:43.767Z,4016.00
2018-04-27T06:44:43.772Z,3924.00
2018-04-27T06:45:43.773Z,3948.00
2018-04-27T06:46:43.767Z,4060.00
2018-04-27T06:47:43.772Z,3988.00
2018-04-27T06:48:43.769Z,4368.00
2018-04-27T06:49:43.772Z,4056.00
2018-04-27T06:50:43.777Z,3512.00
2018-04-27T06:51:43.788Z,3596.00
2018-04-27T06:52:43.774Z,4156.00
2018-04-27T06:53:43.780Z,4668.00
2018-04-27T06:54:43.781Z,4756.00
2018-04-27T06:55:43.778Z,4824.00
2018-04-27T06:56:43.789Z,4904.00
2018-04-27T06:57:43.788Z,4700.00
2018-04-27T06:58:43.788Z,4428.00
2018-04-27T06:59:43.808Z,4288.00
2018-04-27T07:00:43.795Z,3740.00
2018-04-27T07:01:43.796Z,3400.00
2018-04-27T07:02:43.802Z,4392.00
2018-04-27T07:03:43.810Z,4436.00
2018-04-27T07:04:43.808Z,3520.00
2018-04-27T07:05:43.811Z,3388.00
2018-04-27T07:06:43.817Z,3304.00
2018-04-27T07:07:43.822Z,3268.00
2018-04-27T07:08:43.823Z,3308.00
2018-04-27T07:09:43.829Z,3376.00
2018-04-27T07:10:43.832Z,3888.00
2018-04-27T07:11:43.836Z,3428.00
2018-04-27T07:12:43.845Z,3880.00
2018-04-27T07:13:43.852Z,3948.00
2018-04-27T07:14:43.849Z,4204.00
2018-04-27T07:15:43.855Z,4680.00
2018-04-27T07:16:43.858Z,4816.00
2018-04-27T07:17:43.862Z,4660.00
2018-04-27T07:18:43.866Z,4720.00
2018-04-27T07:19:43.871Z,4252.00
2018-04-27T07:20:43.875Z,4492.00
2018-04-27T07:21:43.879Z,4540.00
2018-04-27T07:22:43.902Z,4504.00
2018-04-27T07:23:43.890Z,4356.00
2018-04-27T07:24:43.894Z,4248.00
2018-04-27T07:25:43.903Z,5212.00
2018-04-27T07:26:43.922Z,4780.00
2018-04-27T07:27:43.907Z,4316.00
2018-04-27T07:28:43.913Z,4532.00
2018-04-27T07:29:43.919Z,4516.00
2018-04-27T07:30:43.921Z,4308.00
2018-04-27T07:31:43.931Z,4964.00
2018-04-27T07:32:43.963Z,5172.00
2018-04-27T07:33:43.998Z,5252.00
2018-04-27T07:34:43.944Z,5068.00
2018-04-27T07:35:43.948Z,5316.00
2018-04-27T07:36:43.952Z,5096.00
2018-04-27T07:37:43.956Z,5112.00
2018-04-27T07:38:43.963Z,4204.00
2018-04-27T07:39:44.033Z,4080.00
2018-04-27T07:40:43.973Z,4164.00
2018-04-27T07:41:43.977Z,4836.00
2018-04-27T07:42:43.987Z,4636.00
2018-04-27T07:43:43.988Z,5280.00
2018-04-27T07:44:43.994Z,4812.00
2018-04-27T07:45:43.996Z,3832.00
2018-04-27T07:46:44.004Z,3896.00
2018-04-27T07:47:44.012Z,4168.00
2018-04-27T07:48:44.015Z,4508.00
2018-04-27T07:49:44.020Z,3528.00
2018-04-27T07:50:44.027Z,3572.00
2018-04-27T07:51:44.052Z,3712.00
2018-04-27T07:52:44.035Z,5176.00
2018-04-27T07:53:44.040Z,6300.00
2018-04-27T07:54:44.043Z,7040.00
2018-04-27T07:55:44.048Z,5784.00
2018-04-27T07:56:44.070Z,5572.00
2018-04-27T07:57:44.060Z,4976.00
2018-04-27T07:58:44.063Z,4936.00
2018-04-27T07:59:44.069Z,4996.00
2018-04-27T08:00:44.076Z,3712.00
2018-04-27T08:01:44.101Z,3472.00
2018-04-27T08:02:44.088Z,3476.00
2018-04-27T08:03:44.099Z,3512.00
2018-04-27T08:04:44.095Z,5212.00
2018-04-27T08:05:44.097Z,6352.00
2018-04-27T08:06:44.105Z,5416.00
2018-04-27T08:07:44.110Z,6792.00
2018-04-27T08:08:44.132Z,6692.00
2018-04-27T08:09:44.117Z,6092.00
2018-04-27T08:10:44.124Z,6236.00
2018-04-27T08:11:44.130Z,6212.00
2018-04-27T08:12:44.134Z,5728.00
2018-04-27T08:13:44.151Z,5936.00
2018-04-27T08:14:44.145Z,4796.00
2018-04-27T08:15:44.152Z,4284.00
2018-04-27T08:16:44.153Z,4156.00
2018-04-27T08:17:44.157Z,4444.00
2018-04-27T08:18:44.209Z,4508.00
2018-04-27T08:19:44.168Z,4276.00
2018-04-27T08:20:44.172Z,4324.00
2018-04-27T08:21:44.181Z,4160.00
2018-04-27T08:22:44.189Z,4060.00
2018-04-27T08:23:44.204Z,4148.00
2018-04-27T08:24:44.192Z,3972.00
2018-04-27T08:25:44.213Z,3700.00
2018-04-27T08:26:44.208Z,3724.00
2018-04-27T08:27:44.210Z,3840.00
2018-04-27T08:28:44.213Z,4112.00
2018-04-27T08:29:44.216Z,4024.00
2018-04-27T08:30:44.233Z,4156.00
2018-04-27T08:31:44.227Z,4180.00
2018-04-27T08:32:44.231Z,4120.00
2018-04-27T08:33:44.235Z,4212.00
2018-04-27T08:34:44.242Z,4004.00
2018-04-27T08:35:44.256Z,4124.00
2018-04-27T08:36:44.275Z,4188.00
2018-04-27T08:37:44.259Z,4244.00
2018-04-27T08:38:44.275Z,4340.00
2018-04-27T08:39:44.269Z,4336.00
2018-04-27T08:40:44.268Z,4316.00
2018-04-27T08:41:44.275Z,4304.00
2018-04-27T08:42:44.282Z,4196.00
2018-04-27T08:43:44.339Z,4332.00
2018-04-27T08:44:44.304Z,4272.00
2018-04-27T08:45:44.291Z,4404.00
2018-04-27T08:46:44.300Z,4108.00
2018-04-27T08:47:44.305Z,4200.00
2018-04-27T08:48:44.308Z,3652.00
2018-04-27T08:49:44.312Z,4208.00
2018-04-27T08:50:44.315Z,4368.00
2018-04-27T08:51:44.347Z,4472.00
2018-04-27T08:52:44.326Z,4388.00
2018-04-27T08:53:44.335Z,4416.00
2018-04-27T08:54:44.337Z,4504.00
2018-04-27T08:55:44.338Z,4388.00
2018-04-27T08:56:44.359Z,4516.00
2018-04-27T08:57:44.348Z,4508.00
2018-04-27T08:58:44.355Z,4620.00
2018-04-27T08:59:44.360Z,4512.00
2018-04-27T09:00:44.362Z,4380.00
2018-04-27T09:01:44.367Z,4544.00
2018-04-27T09:02:44.386Z,4668.00
2018-04-27T09:03:44.381Z,4572.00
2018-04-27T09:04:44.390Z,4580.00
2018-04-27T09:05:44.414Z,4684.00
2018-04-27T09:06:44.395Z,4796.00
2018-04-27T09:07:44.398Z,4816.00
2018-04-27T09:08:44.413Z,4660.00
2018-04-27T09:09:45.221Z,4792.00
2018-04-27T09:10:44.409Z,4508.00
2018-04-27T09:11:44.414Z,4732.00
2018-04-27T09:12:44.453Z,4776.00
2018-04-27T09:13:44.422Z,4776.00
2018-04-27T09:14:44.429Z,4912.00
2018-04-27T09:15:44.433Z,4852.00
2018-04-27T09:16:44.437Z,4708.00
2018-04-27T09:17:44.443Z,4764.00
2018-04-27T09:18:44.449Z,4672.00
2018-04-27T09:19:44.455Z,4596.00
2018-04-27T09:20:44.457Z,4672.00
2018-04-27T09:21:44.466Z,4664.00
2018-04-27T09:22:44.467Z,4820.00
2018-04-27T09:23:44.477Z,4828.00
2018-04-27T09:24:44.476Z,4712.00
2018-04-27T09:25:44.542Z,4728.00
2018-04-27T09:26:44.491Z,4784.00
2018-04-27T09:27:44.553Z,4860.00
2018-04-27T09:28:44.501Z,4880.00
2018-04-27T09:29:44.500Z,5036.00
2018-04-27T09:30:44.505Z,4820.00
2018-04-27T09:31:44.510Z,4988.00
2018-04-27T09:32:44.520Z,4976.00
2018-04-27T09:33:44.523Z,4992.00
2018-04-27T09:34:44.524Z,4796.00
2018-04-27T09:35:44.538Z,4812.00
2018-04-27T09:36:44.540Z,4776.00
2018-04-27T09:37:44.552Z,4724.00
2018-04-27T09:38:44.546Z,4744.00
2018-04-27T09:39:44.548Z,4804.00
2018-04-27T09:40:44.558Z,4420.00
2018-04-27T09:41:44.560Z,4780.00
2018-04-27T09:42:44.563Z,4628.00
2018-04-27T09:43:44.569Z,4664.00
2018-04-27T09:44:44.575Z,4652.00
2018-04-27T09:45:44.578Z,5064.00
2018-04-27T09:46:44.584Z,5124.00
2018-04-27T09:47:44.589Z,4748.00
2018-04-27T09:48:44.593Z,4912.00
2018-04-27T09:49:44.609Z,4868.00
2018-04-27T09:50:44.614Z,4836.00
2018-04-27T09:51:44.622Z,4892.00
2018-04-27T09:52:44.612Z,4760.00
2018-04-27T09:53:44.615Z,4904.00
2018-04-27T09:54:44.621Z,4876.00
2018-04-27T09:55:44.629Z,4676.00
2018-04-27T09:56:44.631Z,4772.00
2018-04-27T09:57:44.631Z,4544.00
2018-04-27T09:58:44.640Z,4672.00
2018-04-27T09:59:44.645Z,4588.00
2018-04-27T10:00:44.653Z,4456.00
2018-04-27T10:01:44.670Z,4528.00
2018-04-27T10:02:44.666Z,4528.00
2018-04-27T10:03:44.662Z,4532.00
2018-04-27T10:04:44.668Z,4736.00
2018-04-27T10:05:44.719Z,4512.00
2018-04-27T10:06:44.677Z,4592.00
2018-04-27T10:07:44.686Z,4608.00
2018-04-27T10:08:44.686Z,4440.00
2018-04-27T10:09:44.694Z,4476.00
2018-04-27T10:10:44.698Z,4336.00
2018-04-27T10:11:44.712Z,4304.00
2018-04-27T10:12:44.785Z,4252.00
2018-04-27T10:13:44.711Z,4100.00
2018-04-27T10:14:44.715Z,4148.00
2018-04-27T10:15:44.727Z,4180.00
2018-04-27T10:16:44.730Z,4428.00
2018-04-27T10:17:44.732Z,4232.00
2018-04-27T10:18:44.739Z,4120.00
2018-04-27T10:19:44.739Z,4520.00
2018-04-27T10:20:44.749Z,4092.00
2018-04-27T10:21:44.750Z,4060.00
2018-04-27T10:22:44.759Z,4364.00
2018-04-27T10:23:44.757Z,4468.00
2018-04-27T10:24:44.763Z,4316.00
2018-04-27T10:25:44.793Z,4384.00
2018-04-27T10:26:44.778Z,4468.00
2018-04-27T10:27:44.778Z,4448.00
2018-04-27T10:28:44.784Z,4168.00
2018-04-27T10:29:44.788Z,3832.00
2018-04-27T10:30:44.792Z,4512.00
2018-04-27T10:31:44.796Z,4372.00
2018-04-27T10:32:44.801Z,3728.00
2018-04-27T10:33:44.806Z,3796.00
2018-04-27T10:34:44.813Z,3772.00
2018-04-27T10:35:44.826Z,3744.00
2018-04-27T10:36:44.822Z,3820.00
2018-04-27T10:37:44.824Z,3560.00
2018-04-27T10:38:44.832Z,3296.00
2018-04-27T10:39:44.830Z,3488.00
2018-04-27T10:40:44.840Z,3472.00
2018-04-27T10:41:44.854Z,3668.00
2018-04-27T10:42:44.847Z,3772.00
2018-04-27T10:43:44.852Z,3816.00
2018-04-27T10:44:44.856Z,3640.00
2018-04-27T10:45:44.861Z,3328.00
2018-04-27T10:46:44.867Z,3548.00
2018-04-27T10:47:44.868Z,3656.00
2018-04-27T10:48:44.877Z,3736.00
2018-04-27T10:49:44.882Z,3728.00
2018-04-27T10:50:44.883Z,3696.00
2018-04-27T10:51:44.887Z,3540.00
2018-04-27T10:52:44.896Z,3340.00
2018-04-27T10:53:44.896Z,3088.00
2018-04-27T10:54:44.902Z,2976.00
2018-04-27T10:55:44.907Z,2952.00
2018-04-27T10:56:44.912Z,3172.00
2018-04-27T10:57:44.936Z,3456.00
2018-04-27T10:58:44.933Z,3576.00
2018-04-27T10:59:44.930Z,3452.00
2018-04-27T11:00:44.956Z,3440.00
2018-04-27T11:01:44.941Z,3548.00
2018-04-27T11:02:44.944Z,3608.00
2018-04-27T11:03:44.951Z,3564.00
2018-04-27T11:04:44.965Z,3400.00
2018-04-27T11:05:44.955Z,3340.00
2018-04-27T11:06:44.975Z,3172.00
2018-04-27T11:07:44.980Z,3256.00
2018-04-27T11:08:44.972Z,3324.00
2018-04-27T11:09:45.012Z,3368.00
2018-04-27T11:10:44.984Z,3284.00
2018-04-27T11:11:44.992Z,3248.00
2018-04-27T11:12:44.993Z,3292.00
2018-04-27T11:13:45.016Z,3152.00
2018-04-27T11:14:45.003Z,3104.00
2018-04-27T11:15:45.011Z,3116.00
2018-04-27T11:16:45.588Z,3216.00
2018-04-27T11:17:45.018Z,3136.00
2018-04-27T11:18:45.026Z,3032.00
2018-04-27T11:19:45.036Z,3108.00
2018-04-27T11:20:45.040Z,3056.00
2018-04-27T11:21:45.046Z,2864.00
2018-04-27T11:22:45.047Z,3052.00
2018-04-27T11:23:45.049Z,2928.00
2018-04-27T11:24:45.057Z,2904.00
2018-04-27T11:25:45.080Z,2756.00
2018-04-27T11:26:45.078Z,2644.00
2018-04-27T11:27:45.096Z,2736.00
2018-04-27T11:28:45.141Z,2696.00
2018-04-27T11:29:45.086Z,2624.00
2018-04-27T11:30:45.127Z,2732.00
2018-04-27T11:31:45.125Z,2792.00
2018-04-27T11:32:45.156Z,2848.00
2018-04-27T11:33:45.159Z,2756.00
2018-04-27T11:34:45.122Z,2680.00
2018-04-27T11:35:45.114Z,2700.00
2018-04-27T11:36:45.312Z,2752.00
2018-04-27T11:37:45.122Z,2668.00
2018-04-27T11:38:45.129Z,2620.00
2018-04-27T11:39:45.135Z,2580.00
2018-04-27T11:40:45.140Z,2592.00
2018-04-27T11:41:45.143Z,2536.00
2018-04-27T11:42:45.159Z,2612.00
2018-04-27T11:43:45.162Z,2584.00
2018-04-27T11:44:45.161Z,2412.00
2018-04-27T11:45:45.178Z,2520.00
2018-04-27T11:46:45.178Z,2492.00
2018-04-27T11:47:45.239Z,2488.00
2018-04-27T11:48:45.187Z,2500.00
2018-04-27T11:49:45.198Z,2484.00
2018-04-27T11:50:45.207Z,2452.00
2018-04-27T11:51:45.235Z,2444.00
2018-04-27T11:52:45.272Z,2436.00
2018-04-27T11:53:45.221Z,2432.00
2018-04-27T11:54:45.231Z,2424.00
2018-04-27T11:55:45.253Z,2456.00
2018-04-27T11:56:45.223Z,2456.00
2018-04-27T11:57:45.263Z,2432.00
2018-04-27T11:58:45.237Z,2364.00
2018-04-27T11:59:45.367Z,2308.00
2018-04-27T12:00:45.240Z,2388.00
2018-04-27T12:01:45.381Z,2404.00
2018-04-27T12:02:45.268Z,2400.00
2018-04-27T12:03:45.305Z,2380.00
2018-04-27T12:04:45.277Z,2372.00
2018-04-27T12:05:45.281Z,2376.00
2018-04-27T12:06:45.276Z,2372.00
2018-04-27T12:07:45.292Z,2356.00
2018-04-27T12:08:45.286Z,2364.00
2018-04-27T12:09:45.293Z,2348.00
2018-04-27T12:10:45.417Z,2344.00
2018-04-27T12:11:46.301Z,2276.00
2018-04-27T12:12:45.333Z,2284.00
2018-04-27T12:13:45.351Z,2308.00
2018-04-27T12:14:45.333Z,2256.00
2018-04-27T12:15:45.346Z,2292.00
2018-04-27T12:16:45.327Z,2280.00
2018-04-27T12:17:45.341Z,2316.00
2018-04-27T12:18:45.361Z,2292.00
2018-04-27T12:19:45.346Z,2264.00
2018-04-27T12:20:45.360Z,2272.00
2018-04-27T12:21:45.353Z,2264.00
2018-04-27T12:22:45.380Z,2260.00
2018-04-27T12:23:45.375Z,2264.00
2018-04-27T12:24:45.415Z,2260.00
2018-04-27T12:25:45.374Z,2244.00
2018-04-27T12:26:45.398Z,2240.00
2018-04-27T12:27:45.439Z,2232.00
2018-04-27T12:28:45.394Z,2216.00
2018-04-27T12:29:45.428Z,2224.00
2018-04-27T12:30:45.430Z,2224.00